Asbury, Iowa
Current Conditions -  °F | °C
As of 6:53 PM on Saturday 20 Dec 2014 (Local Time) from KDBQ Reporting Station
Haze Haze  
Wind Chill: 20°   Ceiling: 3300
Heat Index: 30°   Visibility: 4mi
Dew Point: 27°   Wind: 13mph
Humidity: 88%   Direction: 150°SSE
Pressure: 30.19"   Gusts: NA
Location:  42.522°N, 90.7782°W
Report Text: KDBQ 210053Z 15011KT 4SM BR FEW008 SCT027 OVC033 M01/M03 A3019 RMK AO2 SLP236 T10111028
Loading
Personal Weather Stations






























Interactive Weather Map New forecast layout! Learn more

10-Day Weather Forecast

Advertisements
Track Severe Weather on mobile